Peel: Past 24 Hour Conditions

 

Resolute Airport

12:00 AM CST 29 November 2014
This table is a summary of hourly weather conditions for the past 24 hours.
Date / Time
(CST)
Wind(knots) Conditions Visibility(km) Pressure(kPa) Air tempC) Relative humidity(%) Dew pointC) Wind Chill
29 November 2014
0:00 NNE 12 Drifting Snow 24 100.1 -24 77 -27 -36
28 November 2014
23:00 WNW 8 Cloudy 24 100.2 -25 78 -28 -35
22:00 WNW 8 Mostly Cloudy 24 100.2 -24 73 -28 -35
21:00 N 7 gust 19 Mainly Clear 24 100.2 -25 75 -28 -34
20:00 NE 23 Ice Crystals 24 100.2 -25 76 -28 -42
19:00 NW 4 Ice Crystals 24 100.2 -25 77 -28 -31
18:00 N 4 Mainly Clear 24 100.3 -25 77 -28 -31
17:00 NE 18 Drifting Snow 24 100.2 -26 77 -29 -40
16:00 NE 20 Drifting Snow 24 100.3 -27 76 -30 -43
15:00 NE 17 Drifting Snow 21 100.3 -28 74 -31 -43
14:00 N 1 Ice Crystals 24 100.3 -26 76 -29 -29
13:00 SSE 2 Light Snow 24 100.3 -25 77 -28 -28
12:00 NE 12 gust 19 Ice Crystals 24 100.3 -26 76 -29 -39
11:00 NE 16 Ice Crystals 10 100.3 -29 74 -32 -44
10:00 ENE 17 Ice Crystals 24 100.3 -28 75 -31 -43
9:00 ENE 15 Ice Crystals 24 100.3 -27 76 -30 -41
8:00 ENE 11 Ice Crystals 24 100.3 -28 76 -31 -40
7:00 E 19 Ice Crystals 24 100.3 -27 77 -30 -42
6:00 E 16 Ice Crystals 19 100.3 -27 77 -30 -42
5:00 ENE 16 Light Snow 24 100.3 -27 76 -30 -42
4:00 ENE 15 Light Snow 19 100.3 -27 76 -30 -41
3:00 ESE 7 Light Snow 24 100.3 -27 76 -30 -37
2:00 E 13 Light Snow 16 100.3 -26 77 -29 -40
1:00 ESE 14 Light Snow 16 100.3 -26 77 -29 -40
0:00 E 13 Light Snow 16 100.3 -26 77 -29 -39
 
Map of Arctic - Eastern Arctic marine weather areas Baker Lake Airport Chesterfield Inlet Airport Coral Harbour Airport Gjoa Haven Airport Kugaaruk Airport Rankin Inlet Airport Shepherd Bay Airport Whale Cove Airport Arctic Bay Brevoort Island Qikiqtarjuaq Airport Cape Dorset Airport Cape Dyer Cape Hooper Clyde Airport Grise Fiord Airport Hall Beach Airport Igloolik Airport Iqaluit Airport Longstaff Bluff Pangnirtung Airport Pond Inlet Airport Repulse Bay Airport Resolute Airport Resolution Island Rowley Island Airport Taloyoak Airport Wager Bay Akulivik Airport Ivujivik Airport Puvirnituq Airport Kangiqsujuaq Airport Kangirsuk Airport Quaqtaq Airport Tasiujaq Airport Cape Kakkiviak Cape Kiglapait Nain Airport Saglek Cape Mercy Kimmirut Airport Aupaluk Airport Salluit Airport Kangiqsualujjuaq Airport Fort Ross
Legend: buoyBuoy land stationLand Station